Time;durP1;ratioP1;P1;durP2;ratioP2;P2;SDS_P1;SDS_P2;PMS_P1;PMS_P2;Temp;Humidity;BMP_temperature;BMP_pressure;BME280_temperature;BME280_humidity;BME280_pressure;Samples;Min_cycle;Max_cycle;Signal;HPM_P1;HPM_P2
2022/05/31 00:02:24;;;;;;;10.80;6.85;;;;;;;9.82;100.00;101348.91;5038850;28;20053;-46
2022/05/31 00:04:50;;;;;;;14.35;7.13;;;;;;;9.77;100.00;101350.34;5041873;28;20076;-45
2022/05/31 00:07:16;;;;;;;15.40;7.78;;;;;;;9.77;100.00;101348.50;5046447;28;20059;-45
2022/05/31 00:09:41;;;;;;;15.95;7.25;;;;;;;9.75;100.00;101344.31;5044294;28;20033;-44
2022/05/31 00:12:07;;;;;;;14.07;7.18;;;;;;;9.69;100.00;101341.25;5046545;28;20104;-45
2022/05/31 00:14:32;;;;;;;13.98;7.55;;;;;;;9.74;100.00;101342.63;5039335;28;20052;-49
2022/05/31 00:16:59;;;;;;;12.13;7.32;;;;;;;9.71;100.00;101339.25;5037788;28;20218;-44
2022/05/31 00:19:25;;;;;;;10.80;7.05;;;;;;;9.67;100.00;101337.00;5030813;28;20049;-46
2022/05/31 00:21:59;;;;;;;17.02;7.70;;;;;;;9.58;100.00;101332.56;5028286;28;20117;-44
2022/05/31 00:24:24;;;;;;;16.48;7.45;;;;;;;9.56;100.00;101338.03;5036780;28;20581;-44
2022/05/31 00:26:50;;;;;;;13.00;7.82;;;;;;;9.57;100.00;101338.84;5033153;28;20191;-46
2022/05/31 00:29:15;;;;;;;14.00;7.50;;;;;;;9.56;100.00;101331.84;5037554;28;20092;-45
2022/05/31 00:31:44;;;;;;;14.20;7.75;;;;;;;9.55;100.00;101331.00;5046338;28;20108;-44
2022/05/31 00:34:11;;;;;;;12.63;7.45;;;;;;;9.57;100.00;101330.84;5044411;28;20024;-44
2022/05/31 00:36:38;;;;;;;14.70;7.57;;;;;;;9.57;100.00;101336.19;5038787;28;20035;-46
2022/05/31 00:39:05;;;;;;;13.95;7.80;;;;;;;9.58;100.00;101330.72;5046314;28;20450;-45
2022/05/31 00:41:31;;;;;;;15.23;7.72;;;;;;;9.61;100.00;101335.78;5045026;28;20109;-43
2022/05/31 00:44:03;;;;;;;14.80;7.68;;;;;;;9.62;100.00;101331.28;5038332;28;20048;-47
2022/05/31 00:46:40;;;;;;;15.73;7.88;;;;;;;9.63;100.00;101333.78;5039984;28;20033;-45
2022/05/31 00:49:07;;;;;;;13.07;7.97;;;;;;;9.65;100.00;101339.81;5045958;28;20628;-44
2022/05/31 00:51:46;;;;;;;12.13;7.53;;;;;;;9.65;100.00;101342.50;5041239;28;20520;-45
2022/05/31 00:54:18;;;;;;;11.82;7.57;;;;;;;9.61;100.00;101340.28;5042683;28;20090;-44
2022/05/31 00:56:46;;;;;;;14.45;7.65;;;;;;;9.60;100.00;101331.41;5039585;28;20033;-45
2022/05/31 00:59:16;;;;;;;15.98;7.78;;;;;;;9.61;100.00;101337.59;5031789;28;20017;-45
2022/05/31 01:01:43;;;;;;;12.38;7.18;;;;;;;9.54;100.00;101326.66;5034100;28;20395;-44
2022/05/31 01:04:10;;;;;;;13.50;7.57;;;;;;;9.55;100.00;101333.66;5034479;28;20028;-47
2022/05/31 01:06:36;;;;;;;15.13;7.53;;;;;;;9.49;100.00;101331.59;5035385;28;20041;-44
2022/05/31 01:09:03;;;;;;;12.00;7.20;;;;;;;9.46;100.00;101326.53;5034653;28;20321;-48
2022/05/31 01:11:31;;;;;;;12.43;7.80;;;;;;;9.43;100.00;101340.13;5036130;28;20304;-47
2022/05/31 01:13:57;;;;;;;14.07;7.43;;;;;;;9.38;100.00;101331.72;5035527;28;20450;-45
2022/05/31 01:16:22;;;;;;;16.65;7.70;;;;;;;9.33;100.00;101330.34;5033792;28;20119;-47
2022/05/31 01:18:49;;;;;;;10.90;7.57;;;;;;;9.35;100.00;101330.16;5034745;28;20052;-46
2022/05/31 01:21:14;;;;;;;12.05;7.57;;;;;;;9.36;100.00;101329.19;5035059;28;20033;-44
2022/05/31 01:24:24;;;;;;;14.20;7.43;;;;;;;9.37;100.00;101320.22;5034735;28;20336;-48
2022/05/31 01:26:58;;;;;;;14.95;7.72;;;;;;;9.37;100.00;101322.03;5029265;28;20446;-46
2022/05/31 01:29:27;;;;;;;9.80;7.40;;;;;;;9.33;100.00;101324.16;5030330;28;20028;-46
2022/05/31 01:31:57;;;;;;;13.82;7.65;;;;;;;9.29;100.00;101322.75;5034274;28;20569;-46
2022/05/31 01:34:46;;;;;;;11.60;7.53;;;;;;;9.26;100.00;101320.38;5034598;28;20131;-45
2022/05/31 01:37:11;;;;;;;12.90;7.55;;;;;;;9.15;100.00;101308.88;5034131;28;20538;-45
2022/05/31 01:40:04;;;;;;;11.35;7.30;;;;;;;9.18;100.00;101318.38;5034360;28;20104;-44
2022/05/31 01:42:36;;;;;;;12.55;7.90;;;;;;;9.16;100.00;101317.69;5032865;28;20438;-44
2022/05/31 01:45:11;;;;;;;13.70;8.25;;;;;;;9.08;100.00;101302.41;5014537;28;20056;-46
2022/05/31 01:47:36;;;;;;;13.18;8.07;;;;;;;9.09;100.00;101308.59;5031806;28;20032;-44
2022/05/31 01:50:04;;;;;;;14.73;8.35;;;;;;;9.04;100.00;101308.16;5033803;28;20029;-47
2022/05/31 01:52:31;;;;;;;12.15;8.23;;;;;;;9.02;100.00;101313.63;5029947;28;20639;-44
2022/05/31 01:54:56;;;;;;;13.45;7.80;;;;;;;8.98;100.00;101314.03;5032485;28;20696;-45
2022/05/31 01:57:24;;;;;;;14.27;8.07;;;;;;;8.89;100.00;101319.25;5033312;28;20693;-44
2022/05/31 01:59:55;;;;;;;13.85;7.85;;;;;;;8.77;100.00;101312.34;5029939;28;20040;-44
2022/05/31 02:02:21;;;;;;;16.05;8.05;;;;;;;8.67;100.00;101320.31;5030449;28;20491;-46
2022/05/31 02:04:47;;;;;;;14.35;8.38;;;;;;;8.62;100.00;101311.03;5034149;28;20165;-44
2022/05/31 02:07:22;;;;;;;12.90;8.25;;;;;;;8.54;100.00;101314.41;5034630;28;20036;-48
2022/05/31 02:09:50;;;;;;;13.40;8.13;;;;;;;8.48;100.00;101312.28;5032286;28;20047;-45
2022/05/31 02:12:17;;;;;;;17.20;8.73;;;;;;;8.50;100.00;101308.53;5029878;28;20041;-44
2022/05/31 02:14:42;;;;;;;13.18;8.32;;;;;;;8.53;100.00;101308.22;5032067;28;20754;-44
2022/05/31 02:17:08;;;;;;;14.90;9.02;;;;;;;8.55;100.00;101308.09;5031382;28;20029;-48
2022/05/31 02:19:34;;;;;;;15.45;8.40;;;;;;;8.59;100.00;101305.03;5033072;28;20037;-44
2022/05/31 02:22:04;;;;;;;14.48;8.18;;;;;;;8.65;100.00;101305.44;5029573;28;20474;-46
2022/05/31 02:24:30;;;;;;;18.02;8.52;;;;;;;8.71;100.00;101307.56;5033617;28;20426;-48
2022/05/31 02:26:56;;;;;;;14.63;8.80;;;;;;;8.75;100.00;101303.66;5033278;28;20024;-48
2022/05/31 02:29:24;;;;;;;13.20;8.25;;;;;;;8.81;100.00;101304.91;5033171;28;20689;-45
2022/05/31 02:31:50;;;;;;;12.60;7.97;;;;;;;8.87;100.00;101302.53;5033680;28;20210;-44
2022/05/31 02:34:19;;;;;;;14.05;8.27;;;;;;;8.93;100.00;101306.47;5035071;28;20040;-46
2022/05/31 02:36:45;;;;;;;13.43;8.15;;;;;;;8.95;100.00;101299.19;5035553;28;20309;-44
2022/05/31 02:39:10;;;;;;;12.65;7.70;;;;;;;8.98;100.00;101298.06;5035474;28;20029;-44
2022/05/31 02:41:36;;;;;;;13.82;8.13;;;;;;;8.94;100.00;101293.03;5033415;28;20183;-47
2022/05/31 02:44:02;;;;;;;12.57;8.20;;;;;;;8.92;100.00;101297.63;5033534;28;20096;-46
2022/05/31 02:46:28;;;;;;;14.07;8.50;;;;;;;8.91;100.00;101295.09;5033908;28;20025;-45
2022/05/31 02:48:53;;;;;;;18.30;8.75;;;;;;;8.91;100.00;101287.97;5033944;28;20025;-48
2022/05/31 02:51:18;;;;;;;14.15;7.95;;;;;;;8.94;100.00;101292.16;5033897;28;20067;-45
2022/05/31 02:53:44;;;;;;;14.52;8.50;;;;;;;8.95;100.00;101289.38;5015292;28;20103;-43
2022/05/31 02:56:10;;;;;;;16.35;8.18;;;;;;;8.91;100.00;101289.78;5014865;28;20032;-45
2022/05/31 02:58:35;;;;;;;13.88;8.25;;;;;;;8.86;100.00;101292.00;5013627;28;20906;-44
2022/05/31 03:01:01;;;;;;;11.18;8.35;;;;;;;8.84;100.00;101297.50;5012360;28;20021;-47
2022/05/31 03:03:27;;;;;;;15.90;8.68;;;;;;;8.82;100.00;101293.28;5013960;28;20027;-48
2022/05/31 03:05:53;;;;;;;12.07;7.90;;;;;;;8.77;100.00;101291.88;5017407;28;20076;-45
2022/05/31 03:08:18;;;;;;;16.95;8.50;;;;;;;8.77;100.00;101289.22;5017586;28;20339;-44
2022/05/31 03:10:51;;;;;;;13.80;8.38;;;;;;;8.75;100.00;101296.50;5019090;28;20033;-43
2022/05/31 03:13:22;;;;;;;12.70;8.52;;;;;;;8.69;100.00;101291.72;5016670;28;20155;-43
2022/05/31 03:15:48;;;;;;;15.93;8.32;;;;;;;8.73;100.00;101300.28;5016659;28;20025;-46
2022/05/31 03:18:19;;;;;;;14.75;8.80;;;;;;;8.71;100.00;101286.28;5018825;28;20068;-44
2022/05/31 03:20:47;;;;;;;15.32;9.70;;;;;;;8.73;100.00;101281.66;5018163;28;20209;-44
2022/05/31 03:23:23;;;;;;;18.27;8.98;;;;;;;8.70;100.00;101279.25;5018966;28;20025;-45
2022/05/31 03:25:50;;;;;;;14.20;9.23;;;;;;;8.64;100.00;101290.44;5018605;28;20583;-44
2022/05/31 03:28:17;;;;;;;17.38;8.65;;;;;;;8.62;100.00;101287.09;5018758;28;20032;-44
2022/05/31 03:30:42;;;;;;;17.15;9.60;;;;;;;8.61;100.00;101282.75;5016937;28;20526;-44
2022/05/31 03:33:09;;;;;;;13.82;9.13;;;;;;;8.65;100.00;101282.31;5017883;28;20060;-45
2022/05/31 03:35:36;;;;;;;13.75;9.02;;;;;;;8.68;100.00;101286.53;5018236;28;20026;-47
2022/05/31 03:38:02;;;;;;;17.58;9.23;;;;;;;8.74;100.00;101283.31;4998594;28;20029;-48
2022/05/31 03:43:31;;;;;;;14.82;9.15;;;;;;;8.86;100.00;101282.22;4995072;28;20730;-44
2022/05/31 03:45:56;;;;;;;15.23;9.15;;;;;;;8.87;100.00;101283.06;5010389;28;20376;-44
2022/05/31 03:48:22;;;;;;;13.57;9.23;;;;;;;8.86;100.00;101279.56;5017355;28;20038;-44
2022/05/31 03:51:00;;;;;;;15.18;9.73;;;;;;;8.85;100.00;101285.03;5017500;28;20033;-44
2022/05/31 03:53:26;;;;;;;20.67;9.45;;;;;;;8.88;100.00;101288.25;5017002;28;20577;-46
2022/05/31 03:55:52;;;;;;;16.70;9.35;;;;;;;8.89;100.00;101284.63;5018268;28;20026;-44
2022/05/31 03:58:17;;;;;;;15.10;9.23;;;;;;;8.93;100.00;101286.00;5017045;28;20397;-48
2022/05/31 04:00:42;;;;;;;16.20;9.65;;;;;;;8.99;100.00;101286.44;5015577;28;20053;-43
2022/05/31 04:03:08;;;;;;;18.45;9.23;;;;;;;9.02;100.00;101284.31;5017625;28;20059;-46
2022/05/31 04:05:33;;;;;;;16.63;9.73;;;;;;;9.06;100.00;101288.41;5015960;28;20492;-43
2022/05/31 04:08:06;;;;;;;14.73;9.50;;;;;;;9.07;100.00;101282.06;5017749;28;20029;-46
2022/05/31 04:10:32;;;;;;;20.02;10.55;;;;;;;9.09;100.00;101285.44;5024278;28;20025;-46
2022/05/31 04:12:58;;;;;;;15.88;9.70;;;;;;;9.10;100.00;101276.47;5036270;28;20116;-45
2022/05/31 04:15:24;;;;;;;16.60;9.77;;;;;;;9.13;100.00;101273.53;5015738;28;20037;-47
2022/05/31 04:17:49;;;;;;;17.50;10.27;;;;;;;9.21;100.00;101269.31;5017235;28;20053;-47
2022/05/31 04:20:15;;;;;;;17.73;10.13;;;;;;;9.27;100.00;101274.09;5018138;28;20053;-44
2022/05/31 04:22:40;;;;;;;20.27;10.18;;;;;;;9.33;100.00;101274.34;5033972;28;20168;-47
2022/05/31 04:25:06;;;;;;;17.38;9.63;;;;;;;9.38;100.00;101273.06;5037609;28;20064;-45
2022/05/31 04:27:31;;;;;;;21.42;10.55;;;;;;;9.41;100.00;101262.97;5037253;28;20055;-45
2022/05/31 04:29:57;;;;;;;19.52;9.98;;;;;;;9.44;100.00;101270.69;5035450;28;20013;-45
2022/05/31 04:32:22;;;;;;;22.02;11.10;;;;;;;9.52;100.00;101265.47;5035514;28;20033;-44
2022/05/31 04:34:47;;;;;;;21.17;10.43;;;;;;;9.52;100.00;101270.81;5037316;28;20021;-46
2022/05/31 04:37:13;;;;;;;23.77;10.85;;;;;;;9.54;100.00;101276.00;5037984;28;20115;-46
2022/05/31 04:39:39;;;;;;;20.75;11.15;;;;;;;9.58;100.00;101273.88;5036860;28;20274;-47
2022/05/31 04:42:04;;;;;;;22.13;10.88;;;;;;;9.67;100.00;101281.88;5037210;28;20439;-44
2022/05/31 04:44:30;;;;;;;25.38;11.43;;;;;;;9.70;100.00;101278.88;5033824;28;20036;-45
2022/05/31 04:46:55;;;;;;;27.08;11.45;;;;;;;9.76;100.00;101280.16;5035573;28;20414;-46
2022/05/31 04:49:21;;;;;;;19.50;10.07;;;;;;;9.83;100.00;101281.25;5035245;28;20100;-44
2022/05/31 04:51:46;;;;;;;22.77;12.07;;;;;;;9.87;100.00;101274.63;5032520;28;20423;-45
2022/05/31 04:54:12;;;;;;;20.85;11.05;;;;;;;9.92;100.00;101274.19;5017500;28;20407;-44
2022/05/31 04:56:38;;;;;;;18.92;11.15;;;;;;;9.93;100.00;101272.34;5016863;28;20554;-45
2022/05/31 04:59:03;;;;;;;16.33;10.35;;;;;;;9.94;100.00;101274.88;5015293;28;20048;-46
2022/05/31 05:01:29;;;;;;;34.47;11.75;;;;;;;9.96;100.00;101272.06;5016071;28;20064;-46
2022/05/31 05:03:54;;;;;;;23.35;11.45;;;;;;;9.99;100.00;101271.78;5016345;28;20056;-44
2022/05/31 05:06:21;;;;;;;20.55;11.93;;;;;;;10.01;100.00;101278.66;5015258;28;20066;-44
2022/05/31 05:08:47;;;;;;;25.85;12.32;;;;;;;10.09;100.00;101275.25;5016936;28;20040;-48
2022/05/31 05:11:16;;;;;;;21.85;12.27;;;;;;;10.14;100.00;101278.31;5016799;28;20090;-47
2022/05/31 05:13:42;;;;;;;20.05;11.90;;;;;;;10.22;100.00;101269.59;5014626;28;20029;-45
2022/05/31 05:16:09;;;;;;;25.55;11.82;;;;;;;10.28;100.00;101271.63;5015176;28;20045;-43
2022/05/31 05:18:36;;;;;;;23.35;12.63;;;;;;;10.32;100.00;101275.75;5016054;28;20033;-44
2022/05/31 05:21:04;;;;;;;28.85;12.25;;;;;;;10.35;100.00;101270.09;5020243;28;20126;-43
2022/05/31 05:23:29;;;;;;;23.85;13.05;;;;;;;10.38;100.00;101271.63;5036500;28;20033;-45
2022/05/31 05:25:57;;;;;;;27.50;12.65;;;;;;;10.42;100.00;101267.66;5036268;28;20025;-46
2022/05/31 05:31:19;;;;;;;26.38;12.50;;;;;;;10.55;100.00;101267.31;5034576;28;20087;-44
2022/05/31 05:33:44;;;;;;;24.08;12.88;;;;;;;10.62;100.00;101268.38;5036123;28;20113;-46
2022/05/31 05:36:09;;;;;;;24.05;12.88;;;;;;;10.66;100.00;101264.44;5035929;28;20107;-46
2022/05/31 05:38:35;;;;;;;25.85;13.05;;;;;;;10.75;100.00;101276.88;5035069;28;20155;-43
2022/05/31 05:41:00;;;;;;;24.30;13.05;;;;;;;10.82;100.00;101269.09;5031968;28;20033;-44
2022/05/31 05:43:25;;;;;;;23.30;13.35;;;;;;;10.88;100.00;101271.16;5032915;28;20048;-45
2022/05/31 05:45:51;;;;;;;21.73;13.00;;;;;;;10.93;100.00;101271.53;5031401;28;20709;-47
2022/05/31 05:48:16;;;;;;;27.13;14.57;;;;;;;10.99;100.00;101270.91;5034315;28;20067;-44
2022/05/31 05:50:41;;;;;;;26.70;13.70;;;;;;;11.07;100.00;101277.34;5035881;28;20033;-45
2022/05/31 05:53:09;;;;;;;20.63;13.55;;;;;;;11.13;100.00;101269.56;5035567;28;20021;-46
2022/05/31 05:55:36;;;;;;;25.10;14.55;;;;;;;11.16;100.00;101271.06;5035245;28;20057;-45
2022/05/31 05:58:03;;;;;;;25.10;14.95;;;;;;;11.24;100.00;101276.47;5034060;28;20148;-44
2022/05/31 06:00:29;;;;;;;26.33;15.63;;;;;;;11.28;100.00;101275.16;5031838;28;20299;-43
2022/05/31 06:03:13;;;;;;;28.15;14.75;;;;;;;11.37;100.00;101270.72;5033640;28;20016;-47
2022/05/31 06:05:39;;;;;;;25.55;15.05;;;;;;;11.45;100.00;101268.09;5032134;28;20954;-45
2022/05/31 06:08:12;;;;;;;27.88;14.55;;;;;;;11.49;100.00;101272.16;5033542;28;20122;-46
2022/05/31 06:10:50;;;;;;;31.58;14.63;;;;;;;11.51;100.00;101266.66;5033769;28;20674;-43
2022/05/31 06:13:25;;;;;;;26.10;15.07;;;;;;;11.54;100.00;101269.00;5032034;28;20021;-43
2022/05/31 06:15:54;;;;;;;26.40;16.08;;;;;;;11.52;100.00;101273.66;5033061;28;20478;-46
2022/05/31 06:18:28;;;;;;;27.85;14.95;;;;;;;11.52;100.00;101271.00;5030509;28;20021;-43
2022/05/31 06:20:59;;;;;;;28.80;15.48;;;;;;;11.54;100.00;101261.81;5033221;28;20575;-43
2022/05/31 06:23:24;;;;;;;;;;;;;;;11.60;100.00;101263.03;5034588;28;20028;-44
2022/05/31 06:25:50;;;;;;;27.97;16.07;;;;;;;11.51;100.00;101266.66;5034402;28;20007;-45
2022/05/31 06:28:15;;;;;;;26.35;15.82;;;;;;;11.51;100.00;101263.97;5034326;28;20758;-43
2022/05/31 06:30:41;;;;;;;27.80;16.63;;;;;;;11.52;100.00;101266.50;5033876;28;20025;-42
2022/05/31 06:33:06;;;;;;;30.08;16.45;;;;;;;11.57;100.00;101266.00;5034708;28;20054;-45
2022/05/31 06:35:32;;;;;;;31.60;16.45;;;;;;;11.68;100.00;101270.28;5013973;28;20507;-45
2022/05/31 06:37:57;;;;;;;26.95;15.80;;;;;;;11.79;100.00;101263.81;5015271;28;20104;-43
2022/05/31 06:40:22;;;;;;;29.08;15.30;;;;;;;11.85;100.00;101266.69;5014309;28;20045;-44
2022/05/31 06:42:48;;;;;;;30.45;16.20;;;;;;;11.90;99.70;101261.69;5023917;28;20104;-44
2022/05/31 06:45:13;;;;;;;25.70;16.30;;;;;;;12.04;100.00;101264.81;5033619;28;20033;-44
2022/05/31 06:47:38;;;;;;;24.33;15.98;;;;;;;12.09;99.19;101274.03;5033804;28;20043;-44
2022/05/31 06:50:04;;;;;;;24.67;16.02;;;;;;;12.13;98.95;101277.22;5034067;28;20328;-43
2022/05/31 06:57:57;;;;;;;30.35;16.38;;;;;;;12.33;98.39;101269.75;5017137;28;20286;-43
2022/05/31 07:00:24;;;;;;;29.88;16.67;;;;;;;12.55;97.57;101276.38;5031231;28;20119;-47
2022/05/31 07:02:50;;;;;;;36.83;16.73;;;;;;;12.75;97.42;101273.41;5034325;28;20029;-44
2022/05/31 07:05:16;;;;;;;25.73;15.32;;;;;;;13.02;96.37;101273.09;5032766;28;20295;-45
2022/05/31 07:07:42;;;;;;;29.92;16.33;;;;;;;13.35;95.30;101269.59;5033672;28;20391;-43
2022/05/31 07:10:08;;;;;;;27.55;15.35;;;;;;;13.62;92.62;101265.69;5032154;28;20183;-46
2022/05/31 07:12:35;;;;;;;37.00;19.92;;;;;;;13.90;89.70;101266.16;5032532;28;20025;-44
2022/05/31 07:15:01;;;;;;;26.65;15.10;;;;;;;14.13;87.96;101271.59;5032963;28;20108;-45
2022/05/31 07:17:26;;;;;;;27.48;14.70;;;;;;;14.38;86.88;101263.44;5033116;28;20116;-47
2022/05/31 07:19:52;;;;;;;22.05;13.57;;;;;;;14.63;85.01;101257.94;5032880;28;20041;-44
2022/05/31 07:22:17;;;;;;;26.60;14.23;;;;;;;14.89;83.65;101257.59;5034335;28;20452;-48
2022/05/31 07:24:42;;;;;;;25.10;12.75;;;;;;;15.01;80.37;101260.69;5033963;28;20138;-45
2022/05/31 07:27:07;;;;;;;20.98;12.00;;;;;;;15.14;80.88;101263.63;5034822;28;20116;-46
2022/05/31 07:29:33;;;;;;;19.35;11.38;;;;;;;15.21;78.87;101267.25;5031688;28;20531;-44
2022/05/31 07:32:00;;;;;;;19.58;11.45;;;;;;;15.29;79.81;101266.34;5033725;28;20056;-44
2022/05/31 07:34:25;;;;;;;18.17;10.45;;;;;;;15.35;77.73;101260.25;5033704;28;20021;-46
2022/05/31 07:36:51;;;;;;;16.73;10.30;;;;;;;15.35;75.85;101262.09;5034602;28;20082;-44
2022/05/31 07:39:19;;;;;;;17.60;10.27;;;;;;;15.39;77.36;101260.69;5034253;28;20036;-46
2022/05/31 07:41:45;;;;;;;17.85;9.88;;;;;;;15.44;76.31;101258.28;5032129;28;20131;-45
2022/05/31 07:44:11;;;;;;;17.52;9.23;;;;;;;15.43;76.70;101257.47;5033966;28;20151;-46
2022/05/31 07:46:37;;;;;;;16.73;10.10;;;;;;;15.53;78.68;101259.91;5033381;28;20020;-45
2022/05/31 07:49:03;;;;;;;16.95;10.25;;;;;;;15.52;76.12;101260.91;5034151;28;20111;-48
2022/05/31 07:51:28;;;;;;;19.40;10.05;;;;;;;15.52;76.36;101252.84;5035166;28;20243;-44
2022/05/31 07:53:54;;;;;;;23.20;10.77;;;;;;;15.55;77.14;101257.88;5037910;28;20273;-45
2022/05/31 07:56:20;;;;;;;18.00;10.45;;;;;;;15.58;76.89;101260.19;5036449;28;20456;-47
2022/05/31 07:58:46;;;;;;;19.25;10.18;;;;;;;15.64;76.40;101250.53;5033932;28;20033;-43
2022/05/31 08:01:18;;;;;;;15.75;9.73;;;;;;;15.77;74.73;101252.63;5035433;28;20025;-46
2022/05/31 08:03:44;;;;;;;17.10;8.43;;;;;;;15.91;73.62;101249.09;5036172;28;20044;-47
2022/05/31 08:06:12;;;;;;;15.00;8.57;;;;;;;16.14;72.80;101257.06;5033847;28;20016;-48
2022/05/31 08:08:38;;;;;;;16.40;9.35;;;;;;;16.39;73.20;101243.25;5036216;28;20052;-45
2022/05/31 08:11:14;;;;;;;28.67;10.30;;;;;;;16.67;71.12;101243.34;5036265;28;20138;-45
2022/05/31 08:13:40;;;;;;;16.98;9.07;;;;;;;16.79;68.48;101238.28;5034989;28;20107;-44
2022/05/31 08:16:07;;;;;;;16.15;9.18;;;;;;;16.96;68.01;101247.00;5035826;28;20347;-46
2022/05/31 08:18:34;;;;;;;16.50;7.45;;;;;;;17.06;67.88;101239.41;5036849;28;20029;-45
2022/05/31 08:21:14;;;;;;;13.13;7.90;;;;;;;17.01;66.41;101238.31;5035550;28;20123;-44
2022/05/31 08:23:40;;;;;;;13.55;8.02;;;;;;;16.91;66.75;101235.94;5035755;28;20130;-43
2022/05/31 08:26:06;;;;;;;14.32;7.80;;;;;;;16.79;64.23;101233.72;5037424;28;20025;-48
2022/05/31 08:28:32;;;;;;;11.45;7.57;;;;;;;16.86;66.01;101227.59;5035923;28;20032;-44
2022/05/31 08:31:04;;;;;;;23.65;8.13;;;;;;;16.93;69.88;101229.31;5035843;28;20475;-45
2022/05/31 08:33:30;;;;;;;15.75;8.38;;;;;;;16.96;65.94;101228.94;5034689;28;20029;-47
2022/05/31 08:35:56;;;;;;;13.77;8.00;;;;;;;17.07;64.62;101232.97;5023186;28;20017;-48
2022/05/31 08:38:23;;;;;;;13.15;7.47;;;;;;;17.23;66.42;101239.97;5036323;28;20084;-45
2022/05/31 08:41:12;;;;;;;12.32;6.93;;;;;;;17.40;66.16;101231.56;5035784;28;20027;-48
2022/05/31 08:43:46;;;;;;;11.57;6.82;;;;;;;17.33;63.55;101218.03;5033691;28;20055;-46
2022/05/31 08:46:23;;;;;;;11.48;6.50;;;;;;;17.49;63.59;101227.69;5033655;28;20046;-46
2022/05/31 08:48:51;;;;;;;16.77;6.05;;;;;;;17.69;63.46;101231.34;5035542;28;20162;-44
2022/05/31 08:56:57;;;;;;;11.50;6.30;;;;;;;17.15;61.07;101235.53;5035627;28;20203;-45
2022/05/31 08:59:48;;;;;;;13.82;6.20;;;;;;;17.09;64.02;101239.03;5034175;28;20460;-44
2022/05/31 09:02:22;;;;;;;;;;;;;;;17.41;65.73;101235.94;5036662;28;20029;-43
2022/05/31 09:05:05;;;;;;;13.30;5.85;;;;;;;17.75;62.31;101229.69;5036925;28;19908;-45
2022/05/31 09:07:38;;;;;;;18.30;8.40;;;;;;;18.14;62.39;101233.66;5035690;28;20071;-45
2022/05/31 09:10:13;;;;;;;10.82;6.03;;;;;;;18.33;58.83;101228.53;5036206;28;20025;-49
2022/05/31 09:13:00;;;;;;;12.10;6.25;;;;;;;18.41;58.42;101229.22;5036515;28;20283;-45
2022/05/31 09:15:37;;;;;;;26.50;6.43;;;;;;;18.54;58.14;101231.09;5032637;28;20025;-45
2022/05/31 09:18:09;;;;;;;18.33;5.18;;;;;;;18.75;58.26;101231.97;5033465;28;20039;-48
2022/05/31 09:20:37;;;;;;;12.45;5.30;;;;;;;18.89;56.42;101227.44;5035910;28;20371;-44
2022/05/31 09:23:02;;;;;;;11.98;5.00;;;;;;;18.93;55.12;101226.00;5036444;28;20355;-44
2022/05/31 09:25:39;;;;;;;9.98;5.75;;;;;;;18.85;52.74;101229.72;5036112;28;20104;-47
2022/05/31 09:28:27;;;;;;;12.90;5.43;;;;;;;18.66;56.42;101225.91;5035227;28;20082;-46
2022/05/31 09:30:54;;;;;;;9.18;5.50;;;;;;;18.62;56.47;101228.22;4994743;28;20038;-48
2022/05/31 09:33:35;;;;;;;11.80;6.18;;;;;;;18.50;52.84;101229.84;5015557;28;20455;-46
2022/05/31 09:36:17;;;;;;;11.85;5.82;;;;;;;18.55;55.25;101237.31;5035028;28;20044;-45
2022/05/31 09:39:13;;;;;;;13.10;6.85;;;;;;;18.78;54.03;101237.78;5035343;28;20121;-50
2022/05/31 09:41:47;;;;;;;13.63;6.75;;;;;;;18.81;54.49;101226.56;5034443;28;20525;-46
2022/05/31 09:44:20;;;;;;;13.13;6.78;;;;;;;18.80;53.06;101226.75;5032651;28;20570;-46
2022/05/31 09:47:20;;;;;;;9.32;6.35;;;;;;;18.99;54.46;101223.28;5032603;28;20028;-45
2022/05/31 09:49:48;;;;;;;10.38;5.93;;;;;;;18.66;48.39;101222.38;5035291;28;20431;-46
2022/05/31 09:52:31;;;;;;;13.32;6.35;;;;;;;18.59;53.62;101227.78;5036632;28;20055;-44
2022/05/31 09:58:19;;;;;;;43.20;26.08;;;;;;;19.10;54.49;101219.13;5034176;28;20546;-45
2022/05/31 10:01:20;;;;;;;14.32;7.43;;;;;;;19.47;55.64;101224.94;5034492;28;20155;-45
2022/05/31 10:04:00;;;;;;;13.23;7.05;;;;;;;19.19;53.69;101219.72;5034336;28;20055;-44
2022/05/31 10:06:28;;;;;;;12.57;7.50;;;;;;;19.29;53.67;101213.91;5034956;28;20040;-44
2022/05/31 10:08:55;;;;;;;14.77;7.80;;;;;;;19.61;53.11;101208.66;5034944;28;20491;-44
2022/05/31 10:11:37;;;;;;;14.68;8.32;;;;;;;19.59;53.88;101216.16;5032587;28;20106;-44
2022/05/31 10:14:06;;;;;;;12.02;7.25;;;;;;;19.26;52.16;101220.56;5029801;28;20037;-46
2022/05/31 10:16:37;;;;;;;13.38;8.18;;;;;;;19.03;53.84;101217.47;5032333;28;20492;-45
2022/05/31 10:19:06;;;;;;;16.15;8.48;;;;;;;19.24;58.06;101216.41;5035069;28;20039;-48
2022/05/31 10:21:36;;;;;;;13.80;8.27;;;;;;;19.68;54.64;101212.16;5015003;28;20033;-47
2022/05/31 10:24:24;;;;;;;20.70;8.93;;;;;;;19.90;51.80;101208.16;5026219;28;20494;-46
2022/05/31 10:27:09;;;;;;;16.80;8.82;;;;;;;19.84;53.63;101217.16;5032266;28;20136;-46
2022/05/31 10:29:46;;;;;;;16.23;8.57;;;;;;;19.58;56.09;101212.59;5032750;28;20376;-44
2022/05/31 10:32:32;;;;;;;15.90;8.40;;;;;;;19.72;55.89;101210.69;5034682;28;20380;-47
2022/05/31 10:35:08;;;;;;;15.32;8.25;;;;;;;19.95;56.02;101212.94;5033103;28;20029;-46
2022/05/31 10:37:33;;;;;;;15.55;8.38;;;;;;;19.93;53.06;101209.63;5034875;28;20450;-48
2022/05/31 10:40:15;;;;;;;13.82;8.32;;;;;;;20.03;53.12;101210.00;5034892;28;20035;-46
2022/05/31 10:42:44;;;;;;;15.27;8.15;;;;;;;20.55;56.17;101199.06;5034482;28;20033;-48
2022/05/31 10:45:20;;;;;;;15.68;8.98;;;;;;;20.81;50.18;101205.41;5033866;28;20068;-48
2022/05/31 10:47:46;;;;;;;13.57;7.80;;;;;;;21.13;47.01;101203.47;5034224;28;20048;-44
2022/05/31 10:50:11;;;;;;;17.50;9.25;;;;;;;21.14;45.29;101198.84;5035371;28;20440;-44
2022/05/31 10:52:49;;;;;;;14.75;7.68;;;;;;;21.40;46.21;101201.34;5034145;28;20115;-46
2022/05/31 10:55:26;;;;;;;15.00;6.97;;;;;;;21.54;45.01;101198.50;5035211;28;20506;-46
2022/05/31 10:58:03;;;;;;;12.50;7.50;;;;;;;21.36;40.14;101193.84;5033354;28;20283;-45
2022/05/31 11:00:55;;;;;;;22.45;11.50;;;;;;;21.46;45.07;101186.00;5032216;28;20032;-47
2022/05/31 11:03:36;;;;;;;12.98;8.73;;;;;;;21.98;47.28;101181.03;5032290;28;20112;-46
2022/05/31 11:06:19;;;;;;;14.98;8.40;;;;;;;22.15;44.34;101178.50;5032976;28;20495;-48
2022/05/31 11:12:28;;;;;;;14.83;7.53;;;;;;;22.24;43.85;101180.91;5027647;28;20375;-44
2022/05/31 11:15:08;;;;;;;15.32;8.65;;;;;;;21.65;43.03;101192.31;5032377;28;20037;-43
2022/05/31 11:18:00;;;;;;;14.02;8.07;;;;;;;21.08;45.56;101187.00;5033280;28;20404;-48
2022/05/31 11:20:47;;;;;;;12.73;7.60;;;;;;;20.63;48.64;101190.69;5032324;28;20044;-45
2022/05/31 11:23:48;;;;;;;14.00;7.88;;;;;;;20.38;50.73;101201.47;5034553;28;20478;-47
2022/05/31 11:26:16;;;;;;;;;;;;;;;20.26;51.41;101195.06;5034456;28;20025;-45
2022/05/31 11:29:19;;;;;;;16.90;8.82;;;;;;;19.90;52.20;101201.91;5036944;28;20188;-46
2022/05/31 11:31:56;;;;;;;16.55;8.52;;;;;;;19.67;49.56;101205.91;5034313;28;20047;-44
2022/05/31 11:34:51;;;;;;;20.10;9.48;;;;;;;19.35;49.83;101197.66;5034277;28;20527;-49
2022/05/31 11:37:41;;;;;;;16.90;9.10;;;;;;;19.25;50.61;101202.66;5032047;28;20041;-46
2022/05/31 11:40:17;;;;;;;19.92;8.48;;;;;;;19.11;49.79;101203.69;5036744;28;20032;-47
2022/05/31 11:43:07;;;;;;;14.43;8.65;;;;;;;19.03;51.37;101198.53;5032537;28;20503;-44
2022/05/31 11:45:55;;;;;;;20.57;9.40;;;;;;;19.34;52.99;101201.38;5035010;28;20028;-44
2022/05/31 11:48:49;;;;;;;19.13;10.13;;;;;;;19.39;49.72;101201.59;5034907;28;20348;-44
2022/05/31 11:51:23;;;;;;;17.20;8.82;;;;;;;19.21;48.53;101212.22;5040335;28;20373;-45
2022/05/31 11:54:10;;;;;;;22.10;9.85;;;;;;;19.19;50.18;101204.34;5035246;28;20151;-46